createdAt,value
2019-05-25T00:00:54.564Z,71.31
2019-05-25T00:03:23.027Z,71.51
2019-05-25T00:05:51.452Z,72.71
2019-05-25T00:08:20.118Z,73.42
2019-05-25T00:10:48.514Z,74.19
2019-05-25T00:13:16.982Z,74.43
2019-05-25T00:15:45.417Z,74.79
2019-05-25T00:18:13.807Z,74.81
2019-05-25T00:20:42.228Z,75.24
2019-05-25T00:23:10.661Z,74.94
2019-05-25T00:25:39.135Z,75.97
2019-05-25T00:28:07.603Z,75.98
2019-05-25T00:30:36.150Z,77.08
2019-05-25T00:33:04.629Z,76.99
2019-05-25T00:35:33.274Z,77.05
2019-05-25T00:38:01.757Z,77.71
2019-05-25T00:40:30.167Z,77.58
2019-05-25T00:42:58.569Z,77.49
2019-05-25T00:45:26.992Z,77.94
2019-05-25T00:47:55.469Z,77.86
2019-05-25T00:50:23.894Z,77.64
2019-05-25T00:52:52.344Z,76.64
2019-05-25T00:55:20.757Z,75.50
2019-05-25T00:57:49.178Z,75.78
2019-05-25T01:00:18.438Z,76.42
2019-05-25T01:02:46.934Z,76.97
2019-05-25T01:05:15.429Z,76.99
2019-05-25T01:07:43.841Z,77.05
2019-05-25T01:10:12.769Z,77.11
2019-05-25T01:12:41.198Z,77.91
2019-05-25T01:15:11.619Z,78.52
2019-05-25T01:17:40.102Z,77.85
2019-05-25T01:20:09.984Z,77.63
2019-05-25T01:22:38.493Z,78.48
2019-05-25T01:25:08.726Z,77.88
2019-05-25T01:27:37.205Z,78.51
2019-05-25T01:30:07.586Z,77.88
2019-05-25T01:32:36.006Z,77.66
2019-05-25T01:37:53.243Z,78.58
2019-05-25T01:40:21.799Z,78.33
2019-05-25T01:42:50.197Z,78.78
2019-05-25T01:45:18.691Z,79.54
2019-05-25T01:47:47.190Z,80.30
2019-05-25T01:50:15.827Z,80.96
2019-05-25T01:52:44.254Z,80.83
2019-05-25T01:55:12.913Z,80.52
2019-05-25T01:57:41.326Z,81.59
2019-05-25T02:00:10.355Z,81.06
2019-05-25T02:02:38.908Z,81.43
2019-05-25T02:05:07.700Z,81.29
2019-05-25T02:07:36.235Z,80.93
2019-05-25T02:10:09.285Z,80.50
2019-05-25T02:12:37.695Z,80.99
2019-05-25T02:15:10.466Z,81.76
2019-05-25T02:17:38.932Z,82.85
2019-05-25T02:20:07.785Z,81.54
2019-05-25T02:22:36.267Z,82.00
2019-05-25T02:25:16.989Z,82.51
2019-05-25T02:27:37.395Z,82.53
2019-05-25T02:30:07.715Z,81.83
2019-05-25T02:32:36.212Z,82.42
2019-05-25T02:35:06.422Z,81.73
2019-05-25T02:37:34.834Z,82.62
2019-05-25T02:40:04.899Z,82.98
2019-05-25T02:42:33.359Z,82.48
2019-05-25T02:45:01.822Z,82.64
2019-05-25T02:47:30.312Z,82.48
2019-05-25T02:49:58.790Z,82.96
2019-05-25T02:52:27.224Z,82.56
2019-05-25T02:54:55.650Z,81.84
2019-05-25T02:57:24.132Z,82.05
2019-05-25T02:59:52.553Z,82.26
2019-05-25T03:02:21.736Z,82.99
2019-05-25T03:04:50.332Z,82.65
2019-05-25T03:07:19.803Z,82.30
2019-05-25T03:09:50.656Z,82.29
2019-05-25T03:12:19.221Z,82.26
2019-05-25T03:14:47.619Z,82.93
2019-05-25T03:17:16.039Z,82.53
2019-05-25T03:19:44.465Z,83.06
2019-05-25T03:22:12.877Z,82.89
2019-05-25T03:24:41.340Z,83.27
2019-05-25T03:27:09.764Z,83.44
2019-05-25T03:29:38.199Z,83.50
2019-05-25T03:32:06.606Z,83.85
2019-05-25T03:34:35.033Z,83.48
2019-05-25T03:37:03.452Z,83.82
2019-05-25T03:39:31.936Z,84.24
2019-05-25T03:42:00.416Z,84.46
2019-05-25T03:44:28.834Z,84.24
2019-05-25T03:46:57.303Z,83.84
2019-05-25T03:49:25.779Z,84.47
2019-05-25T03:51:54.197Z,84.84
2019-05-25T03:54:22.619Z,85.11
2019-05-25T03:56:51.030Z,84.86
2019-05-25T03:59:19.451Z,85.33
2019-05-25T04:01:47.890Z,85.22
2019-05-25T04:04:16.365Z,84.82
2019-05-25T04:06:44.811Z,84.88
2019-05-25T04:09:13.236Z,85.07
2019-05-25T04:11:41.665Z,85.83
2019-05-25T04:14:10.083Z,86.10
2019-05-25T04:16:38.506Z,86.26
2019-05-25T04:19:06.934Z,85.98
2019-05-25T04:21:35.339Z,86.23
2019-05-25T04:24:04.239Z,85.58
2019-05-25T04:26:32.780Z,85.61
2019-05-25T04:29:01.185Z,86.12
2019-05-25T04:31:29.621Z,86.37
2019-05-25T04:33:58.003Z,86.58
2019-05-25T04:36:26.424Z,86.30
2019-05-25T04:38:54.855Z,86.65
2019-05-25T04:41:23.306Z,86.71
2019-05-25T04:43:51.725Z,86.70
2019-05-25T04:46:21.610Z,87.18
2019-05-25T04:48:50.226Z,86.91
2019-05-25T04:51:18.714Z,86.71
2019-05-25T04:53:47.185Z,86.48
2019-05-25T04:56:15.663Z,86.42
2019-05-25T04:58:44.114Z,86.33
2019-05-25T05:01:12.514Z,86.95
2019-05-25T05:03:40.915Z,86.85
2019-05-25T05:06:09.453Z,86.39
2019-05-25T05:08:37.849Z,86.62
2019-05-25T05:11:06.333Z,86.63
2019-05-25T05:13:34.738Z,86.76
2019-05-25T05:16:03.171Z,86.87
2019-05-25T05:18:31.721Z,86.65
2019-05-25T05:21:00.158Z,86.89
2019-05-25T05:23:28.641Z,86.71
2019-05-25T05:25:57.043Z,86.94
2019-05-25T05:28:25.450Z,86.96
2019-05-25T05:30:54.014Z,86.49
2019-05-25T05:33:22.885Z,86.61
2019-05-25T05:35:52.268Z,86.19
2019-05-25T05:38:21.350Z,85.92
2019-05-25T05:40:50.623Z,86.43
2019-05-25T05:43:20.182Z,86.17
2019-05-25T05:45:51.252Z,85.91
2019-05-25T05:48:22.701Z,86.18
2019-05-25T05:50:52.919Z,86.27
2019-05-25T05:53:23.148Z,86.60
2019-05-25T05:55:51.544Z,86.20
2019-05-25T05:58:19.947Z,86.50
2019-05-25T06:00:48.425Z,85.86
2019-05-25T06:03:16.899Z,85.45
2019-05-25T06:05:45.420Z,85.62
2019-05-25T06:08:13.949Z,85.58
2019-05-25T06:10:42.352Z,85.59
2019-05-25T06:13:10.778Z,86.00
2019-05-25T06:15:39.246Z,85.96
2019-05-25T06:18:07.741Z,85.24
2019-05-25T06:20:36.141Z,85.27
2019-05-25T06:23:08.474Z,85.24
2019-05-25T06:25:34.859Z,85.20
2019-05-25T06:28:03.386Z,85.13
2019-05-25T06:30:31.827Z,83.89
2019-05-25T06:33:00.322Z,84.16
2019-05-25T06:35:28.748Z,82.81
2019-05-25T06:37:57.153Z,81.65
2019-05-25T06:40:25.790Z,80.42
2019-05-25T06:42:55.995Z,79.63
2019-05-25T06:45:24.432Z,80.20
2019-05-25T06:47:52.872Z,80.67
2019-05-25T06:50:21.446Z,79.42
2019-05-25T06:52:49.925Z,79.12
2019-05-25T06:55:18.489Z,80.01
2019-05-25T06:57:46.928Z,79.77
2019-05-25T07:00:16.345Z,78.73
2019-05-25T07:02:44.760Z,79.82
2019-05-25T07:05:13.403Z,79.83
2019-05-25T07:07:41.870Z,79.66
2019-05-25T07:10:10.740Z,79.13
2019-05-25T07:12:39.215Z,78.63
2019-05-25T07:15:08.895Z,79.58
2019-05-25T07:17:37.320Z,78.46
2019-05-25T07:20:09.792Z,77.70
2019-05-25T07:22:38.210Z,78.42
2019-05-25T07:25:07.605Z,77.94
2019-05-25T07:27:36.002Z,77.79
2019-05-25T07:30:06.530Z,78.26
2019-05-25T07:32:35.052Z,79.03
2019-05-25T07:35:04.869Z,78.65
2019-05-25T07:37:33.294Z,79.25
2019-05-25T07:40:01.710Z,79.15
2019-05-25T07:42:30.200Z,78.99
2019-05-25T07:44:58.707Z,78.27
2019-05-25T07:47:27.108Z,78.19
2019-05-25T07:49:55.523Z,78.87
2019-05-25T07:52:23.967Z,78.48
2019-05-25T07:54:52.374Z,77.62
2019-05-25T07:57:20.808Z,78.38
2019-05-25T07:59:49.246Z,77.50
2019-05-25T08:02:17.678Z,77.10
2019-05-25T08:04:46.080Z,75.47
2019-05-25T08:07:14.513Z,75.50
2019-05-25T08:09:43.014Z,74.18
2019-05-25T08:12:11.452Z,74.43
2019-05-25T08:14:39.874Z,74.48
2019-05-25T08:17:08.315Z,75.21
2019-05-25T08:19:36.809Z,74.93
2019-05-25T08:22:05.388Z,73.73
2019-05-25T08:24:33.797Z,74.55
2019-05-25T08:27:02.215Z,74.35
2019-05-25T08:29:30.648Z,73.68
2019-05-25T08:31:59.058Z,74.60
2019-05-25T08:34:27.502Z,75.23
2019-05-25T08:36:56.002Z,75.65
2019-05-25T08:39:24.458Z,76.25
2019-05-25T08:41:52.939Z,74.75
2019-05-25T08:44:21.376Z,74.85
2019-05-25T08:46:49.805Z,74.00
2019-05-25T08:49:18.234Z,71.90
2019-05-25T08:51:46.676Z,72.92
2019-05-25T08:54:15.140Z,71.45
2019-05-25T08:56:57.023Z,72.01
2019-05-25T08:59:25.696Z,71.42
2019-05-25T09:01:54.125Z,71.14
2019-05-25T09:04:25.508Z,71.97
2019-05-25T09:06:52.777Z,71.86
2019-05-25T09:09:21.285Z,70.13
2019-05-25T09:11:49.794Z,71.30
2019-05-25T09:14:18.208Z,70.22
2019-05-25T09:16:46.611Z,69.86
2019-05-25T09:19:15.055Z,71.57
2019-05-25T09:21:43.454Z,70.36
2019-05-25T09:24:11.995Z,69.32
2019-05-25T09:26:40.413Z,68.80
2019-05-25T09:29:09.211Z,70.65
2019-05-25T09:31:37.712Z,70.50
2019-05-25T09:34:06.119Z,68.95
2019-05-25T09:36:34.549Z,69.89
2019-05-25T09:39:03.055Z,71.05
2019-05-25T09:41:31.502Z,70.12
2019-05-25T09:43:59.905Z,70.44
2019-05-25T09:46:28.333Z,69.87
2019-05-25T09:48:56.853Z,69.61
2019-05-25T09:51:25.275Z,68.19
2019-05-25T09:53:53.752Z,68.81
2019-05-25T09:56:22.156Z,66.80
2019-05-25T09:58:50.556Z,66.90
2019-05-25T10:01:19.068Z,65.95
2019-05-25T10:03:47.487Z,68.04
2019-05-25T10:06:15.922Z,68.32
2019-05-25T10:08:44.326Z,67.45
2019-05-25T10:11:12.829Z,66.60
2019-05-25T10:13:41.242Z,66.22
2019-05-25T10:16:09.720Z,65.56
2019-05-25T10:18:38.179Z,65.46
2019-05-25T10:21:06.584Z,66.44
2019-05-25T10:23:35.486Z,66.06
2019-05-25T10:26:04.004Z,64.53
2019-05-25T10:28:32.410Z,65.03
2019-05-25T10:31:00.901Z,64.41
2019-05-25T10:33:29.344Z,65.84
2019-05-25T10:35:57.756Z,66.71
2019-05-25T10:38:26.164Z,66.72
2019-05-25T10:40:55.535Z,66.51
2019-05-25T10:43:24.736Z,65.36
2019-05-25T10:45:53.172Z,63.82
2019-05-25T10:48:21.677Z,62.99
2019-05-25T10:50:50.076Z,63.95
2019-05-25T10:53:18.493Z,65.01
2019-05-25T10:55:46.938Z,63.24
2019-05-25T10:58:15.358Z,64.47
2019-05-25T11:00:43.771Z,65.25
2019-05-25T11:03:12.206Z,64.13
2019-05-25T11:05:40.616Z,65.28
2019-05-25T11:08:09.019Z,63.94
2019-05-25T11:10:37.456Z,62.98
2019-05-25T11:13:05.949Z,63.08
2019-05-25T11:15:34.379Z,63.87
2019-05-25T11:18:02.848Z,62.34
2019-05-25T11:20:31.316Z,62.84
2019-05-25T11:23:00.317Z,63.47
2019-05-25T11:25:28.695Z,62.12
2019-05-25T11:27:57.163Z,61.74
2019-05-25T11:30:25.695Z,59.82
2019-05-25T11:32:54.131Z,61.62
2019-05-25T11:35:22.770Z,61.16
2019-05-25T11:37:51.244Z,59.38
2019-05-25T11:40:21.011Z,59.92
2019-05-25T11:42:49.509Z,59.40
2019-05-25T11:45:18.769Z,60.36
2019-05-25T11:47:47.235Z,61.18
2019-05-25T11:50:16.029Z,60.19
2019-05-25T11:52:44.511Z,60.59
2019-05-25T11:55:13.234Z,60.71
2019-05-25T11:57:41.803Z,59.33
2019-05-25T12:00:24.369Z,59.75
2019-05-25T12:02:43.635Z,57.42
2019-05-25T12:05:13.497Z,56.13
2019-05-25T12:07:44.584Z,53.89
2019-05-25T12:10:12.968Z,52.00
2019-05-25T12:12:41.467Z,51.19
2019-05-25T12:15:10.587Z,53.01
2019-05-25T12:17:39.007Z,54.01
2019-05-25T12:20:09.002Z,59.71
2019-05-25T12:22:37.443Z,55.63
2019-05-25T12:25:07.505Z,53.75
2019-05-25T12:27:35.898Z,53.10
2019-05-25T12:30:06.665Z,52.84
2019-05-25T12:32:35.164Z,49.66
2019-05-25T12:35:05.337Z,47.78
2019-05-25T12:37:33.751Z,49.00
2019-05-25T12:40:02.484Z,50.69
2019-05-25T12:42:30.856Z,52.13
2019-05-25T12:44:59.376Z,47.92
2019-05-25T12:47:27.831Z,47.38
2019-05-25T12:49:56.218Z,46.94
2019-05-25T12:52:24.645Z,50.15
2019-05-25T12:54:53.046Z,49.35
2019-05-25T12:57:24.110Z,50.07
2019-05-25T12:59:51.621Z,53.23
2019-05-25T13:02:20.110Z,54.63
2019-05-25T13:04:48.557Z,55.71
2019-05-25T13:07:17.051Z,50.54
2019-05-25T13:09:45.522Z,50.20
2019-05-25T13:12:14.029Z,48.93
2019-05-25T13:14:42.441Z,48.19
2019-05-25T13:17:10.923Z,48.57
2019-05-25T13:19:39.399Z,48.02
2019-05-25T13:22:07.827Z,50.39
2019-05-25T13:24:36.243Z,50.77
2019-05-25T13:27:04.806Z,50.08
2019-05-25T13:29:33.279Z,49.25
2019-05-25T13:32:01.768Z,47.60
2019-05-25T13:34:30.307Z,49.06
2019-05-25T13:37:01.689Z,48.24
2019-05-25T13:39:28.884Z,48.76
2019-05-25T13:41:57.344Z,50.81
2019-05-25T13:44:25.835Z,51.38
2019-05-25T13:46:54.322Z,50.86
2019-05-25T13:49:25.440Z,51.53
2019-05-25T13:51:53.852Z,50.69
2019-05-25T13:54:22.277Z,50.52
2019-05-25T13:56:50.782Z,48.26
2019-05-25T13:59:19.314Z,49.45
2019-05-25T14:01:47.817Z,50.04
2019-05-25T14:04:16.296Z,49.95
2019-05-25T14:06:44.736Z,51.40
2019-05-25T14:09:15.871Z,50.05
2019-05-25T14:11:43.364Z,50.15
2019-05-25T14:14:11.787Z,50.35
2019-05-25T14:16:40.205Z,50.10
2019-05-25T14:19:08.662Z,51.79
2019-05-25T14:21:37.084Z,51.48
2019-05-25T14:24:05.595Z,49.82
2019-05-25T14:26:34.011Z,47.59
2019-05-25T14:29:02.531Z,47.87
2019-05-25T14:31:44.446Z,48.41
2019-05-25T14:34:01.166Z,46.67
2019-05-25T14:36:29.586Z,47.78
2019-05-25T14:39:00.852Z,46.51
2019-05-25T14:41:29.258Z,48.42
2019-05-25T14:43:57.681Z,46.66
2019-05-25T14:46:28.245Z,46.82
2019-05-25T14:48:56.312Z,47.07
2019-05-25T14:51:24.747Z,46.56
2019-05-25T14:53:53.160Z,46.56
2019-05-25T14:56:21.586Z,46.59
2019-05-25T14:58:50.357Z,46.40
2019-05-25T15:01:18.730Z,46.06
2019-05-25T15:03:47.114Z,46.12
2019-05-25T15:06:20.545Z,46.18
2019-05-25T15:08:46.147Z,47.91
2019-05-25T15:11:14.566Z,45.12
2019-05-25T15:13:42.987Z,46.07
2019-05-25T15:16:11.468Z,45.89
2019-05-25T15:18:39.903Z,45.77
2019-05-25T15:21:08.310Z,46.83
2019-05-25T15:23:36.811Z,46.93
2019-05-25T15:26:05.651Z,46.01
2019-05-25T15:28:34.099Z,46.15
2019-05-25T15:31:02.578Z,47.84
2019-05-25T15:33:30.997Z,48.27
2019-05-25T15:35:59.406Z,47.61
2019-05-25T15:38:27.821Z,48.29
2019-05-25T15:40:56.236Z,48.69
2019-05-25T15:43:24.653Z,51.07
2019-05-25T15:45:53.086Z,49.97
2019-05-25T15:48:21.654Z,50.18
2019-05-25T15:50:50.054Z,49.04
2019-05-25T15:53:18.540Z,50.34
2019-05-25T15:55:46.921Z,48.87
2019-05-25T15:58:15.449Z,49.50
2019-05-25T16:00:51.327Z,50.34
2019-05-25T16:03:21.625Z,49.58
2019-05-25T16:05:50.557Z,51.88
2019-05-25T16:08:19.804Z,49.34
2019-05-25T16:10:48.857Z,50.03
2019-05-25T16:13:17.745Z,49.36
2019-05-25T16:15:46.129Z,48.37
2019-05-25T16:18:14.523Z,47.55
2019-05-25T16:20:42.954Z,46.94
2019-05-25T16:23:11.460Z,46.34
2019-05-25T16:25:39.859Z,48.08
2019-05-25T16:28:08.267Z,46.71
2019-05-25T16:30:36.775Z,47.21
2019-05-25T16:33:12.606Z,46.17
2019-05-25T16:35:35.609Z,49.28
2019-05-25T16:38:04.235Z,47.40
2019-05-25T16:40:34.127Z,47.19
2019-05-25T16:43:02.575Z,45.87
2019-05-25T16:45:30.983Z,46.89
2019-05-25T16:47:59.461Z,46.72
2019-05-25T16:50:27.949Z,45.24
2019-05-25T16:52:56.366Z,45.65
2019-05-25T16:55:24.798Z,47.34
2019-05-25T16:57:53.288Z,45.81
2019-05-25T17:00:27.320Z,48.29
2019-05-25T17:02:57.238Z,47.21
2019-05-25T17:05:26.535Z,47.63
2019-05-25T17:07:55.032Z,47.80
2019-05-25T17:10:25.330Z,48.95
2019-05-25T17:12:53.729Z,48.59
2019-05-25T17:15:22.490Z,48.87
2019-05-25T17:17:51.553Z,49.73
2019-05-25T17:20:20.098Z,49.52
2019-05-25T17:22:48.524Z,48.64
2019-05-25T17:25:17.679Z,49.78
2019-05-25T17:27:46.145Z,50.10
2019-05-25T17:30:16.551Z,49.58
2019-05-25T17:32:45.039Z,50.21
2019-05-25T17:35:15.119Z,50.22
2019-05-25T17:37:43.606Z,50.91
2019-05-25T17:40:12.675Z,50.61
2019-05-25T17:42:41.258Z,50.71
2019-05-25T17:45:10.034Z,50.03
2019-05-25T17:47:38.559Z,51.05
2019-05-25T17:50:08.143Z,51.39
2019-05-25T17:52:36.548Z,50.92
2019-05-25T17:55:06.883Z,51.00
2019-05-25T17:57:35.386Z,51.18
2019-05-25T18:00:06.526Z,51.75
2019-05-25T18:02:36.837Z,52.39
2019-05-25T18:05:07.575Z,50.73
2019-05-25T18:07:36.095Z,50.51
2019-05-25T18:10:07.801Z,51.66
2019-05-25T18:12:36.282Z,52.11
2019-05-25T18:15:07.761Z,52.08
2019-05-25T18:17:36.214Z,52.10
2019-05-25T18:20:07.426Z,51.95
2019-05-25T18:22:35.869Z,51.44
2019-05-25T18:25:07.922Z,52.30
2019-05-25T18:27:36.349Z,53.52
2019-05-25T18:30:06.785Z,53.32
2019-05-25T18:32:35.198Z,52.37
2019-05-25T18:35:04.899Z,53.02
2019-05-25T18:37:36.356Z,54.09
2019-05-25T18:40:09.696Z,54.28
2019-05-25T18:42:38.309Z,54.44
2019-05-25T18:45:08.146Z,55.25
2019-05-25T18:47:36.657Z,56.29
2019-05-25T18:50:09.875Z,56.30
2019-05-25T18:52:38.343Z,55.02
2019-05-25T18:55:08.624Z,57.50
2019-05-25T18:57:37.114Z,58.12
2019-05-25T19:00:08.809Z,59.38
2019-05-25T19:02:37.507Z,60.11
2019-05-25T19:05:07.247Z,58.89
2019-05-25T19:07:35.922Z,60.94
2019-05-25T19:10:07.031Z,61.24
2019-05-25T19:12:35.639Z,61.95
2019-05-25T19:15:07.376Z,62.28
2019-05-25T19:17:35.788Z,62.71
2019-05-25T19:20:05.981Z,63.41
2019-05-25T19:22:34.471Z,64.27
2019-05-25T19:25:03.065Z,64.72
2019-05-25T19:27:31.486Z,65.36
2019-05-25T19:29:59.888Z,64.17
2019-05-25T19:32:28.461Z,65.76
2019-05-25T19:35:00.038Z,66.80
2019-05-25T19:37:27.144Z,67.01
2019-05-25T19:39:55.682Z,66.98
2019-05-25T19:42:24.126Z,68.38
2019-05-25T19:44:52.542Z,68.67
2019-05-25T19:47:21.000Z,68.71
2019-05-25T19:49:49.511Z,68.88
2019-05-25T19:52:18.083Z,69.52
2019-05-25T19:54:46.504Z,70.17
2019-05-25T19:57:14.994Z,70.08
2019-05-25T19:59:43.571Z,70.47
2019-05-25T20:02:11.986Z,70.69
2019-05-25T20:04:40.502Z,70.65
2019-05-25T20:07:09.064Z,71.39
2019-05-25T20:09:37.512Z,71.27
2019-05-25T20:12:06.000Z,72.09
2019-05-25T20:14:34.399Z,71.54
2019-05-25T20:17:02.940Z,72.62
2019-05-25T20:19:31.413Z,72.80
2019-05-25T20:21:59.848Z,73.35
2019-05-25T20:24:28.304Z,73.12
2019-05-25T20:26:56.719Z,74.36
2019-05-25T20:29:25.164Z,75.35
2019-05-25T20:31:53.591Z,74.98
2019-05-25T20:34:21.999Z,75.57
2019-05-25T20:36:50.504Z,75.56
2019-05-25T20:39:18.904Z,74.98
2019-05-25T20:41:47.383Z,74.63
2019-05-25T20:44:15.910Z,75.57
2019-05-25T20:46:44.347Z,75.79
2019-05-25T20:49:12.857Z,75.67
2019-05-25T20:51:41.256Z,75.69
2019-05-25T20:54:09.701Z,75.87
2019-05-25T20:56:38.124Z,75.76
2019-05-25T20:59:06.609Z,76.32
2019-05-25T21:01:35.084Z,76.02
2019-05-25T21:04:03.664Z,76.07
2019-05-25T21:06:32.108Z,76.35
2019-05-25T21:09:00.610Z,76.35
2019-05-25T21:11:29.092Z,76.66
2019-05-25T21:13:57.529Z,76.36
2019-05-25T21:16:25.995Z,76.92
2019-05-25T21:18:54.436Z,77.55
2019-05-25T21:21:22.869Z,77.03
2019-05-25T21:23:51.300Z,77.57
2019-05-25T21:26:19.711Z,77.07
2019-05-25T21:28:48.108Z,77.07
2019-05-25T21:31:16.561Z,77.57
2019-05-25T21:33:44.967Z,77.59
2019-05-25T21:36:13.480Z,77.38
2019-05-25T21:38:41.907Z,77.37
2019-05-25T21:41:10.349Z,76.46
2019-05-25T21:43:38.825Z,75.59
2019-05-25T21:46:07.306Z,76.19
2019-05-25T21:48:35.734Z,77.31
2019-05-25T21:51:04.176Z,77.84
2019-05-25T21:53:32.598Z,78.42
2019-05-25T21:56:01.071Z,78.55
2019-05-25T21:58:29.512Z,78.01
2019-05-25T22:00:57.995Z,78.87
2019-05-25T22:03:26.550Z,78.02
2019-05-25T22:05:55.060Z,78.65
2019-05-25T22:08:23.565Z,79.01
2019-05-25T22:10:52.071Z,79.60
2019-05-25T22:13:27.993Z,78.67
2019-05-25T22:15:50.644Z,78.96
2019-05-25T22:18:19.936Z,78.70
2019-05-25T22:20:48.408Z,79.30
2019-05-25T22:23:16.845Z,78.21
2019-05-25T22:25:45.245Z,79.21
2019-05-25T22:28:13.669Z,79.54
2019-05-25T22:30:42.114Z,79.33
2019-05-25T22:33:10.559Z,80.08
2019-05-25T22:35:38.960Z,80.39
2019-05-25T22:38:07.456Z,79.18
2019-05-25T22:40:35.906Z,79.05
2019-05-25T22:43:04.387Z,78.99
2019-05-25T22:45:32.869Z,78.87
2019-05-25T22:48:01.274Z,80.24
2019-05-25T22:50:29.682Z,79.82
2019-05-25T22:52:58.104Z,79.37
2019-05-25T22:55:26.523Z,80.65
2019-05-25T22:57:55.005Z,80.37
2019-05-25T23:00:23.654Z,80.77
2019-05-25T23:02:52.065Z,81.16
2019-05-25T23:05:20.712Z,80.76
2019-05-25T23:07:49.114Z,80.08
2019-05-25T23:10:17.761Z,79.82
2019-05-25T23:12:46.195Z,80.04
2019-05-25T23:15:14.874Z,80.69
2019-05-25T23:17:43.286Z,80.30
2019-05-25T23:20:12.552Z,80.54
2019-05-25T23:22:41.117Z,81.34
2019-05-25T23:25:09.704Z,81.20
2019-05-25T23:27:38.134Z,81.17
2019-05-25T23:30:07.288Z,82.00
2019-05-25T23:32:35.717Z,81.75
2019-05-25T23:35:04.954Z,81.63
2019-05-25T23:37:33.467Z,81.53
2019-05-25T23:40:01.892Z,82.24
2019-05-25T23:42:30.307Z,82.42
2019-05-25T23:44:58.706Z,81.56
2019-05-25T23:47:27.126Z,81.37
2019-05-25T23:49:58.856Z,81.45
2019-05-25T23:52:25.686Z,80.68
2019-05-25T23:54:54.107Z,81.13
2019-05-25T23:57:22.506Z,81.97
2019-05-25T23:59:50.939Z,81.63
